Bowler, WI (54416)

4:00 AM CST on January 17, 2017 (GMT -0600)
PVC Dr Raspberry Rd weather | | Change Station
Active Advisory: Winter Storm Warning

Elev 1230 ft 44.88 °N, 89.12 °W | Updated 24 seconds ago

Overcast
Overcast
32.2 °F
Feels Like 32 °F
N
0.0
Wind Variable Wind from East
Gusts 0.0 mph

Today
High -- | Low -- °F
--% Chance of Precip.
Yesterday
High -- | Low -- °F
Precip. -- in
Pressure 29.87 in
Visibility 7.0 miles
Clouds Overcast 700 ft
Windchill 32 °F
Dew Point 30 °F
Humidity 91%
Rainfall 0.00 in
Snow Depth Not available.
7:28 AM 4:43 PM
Waning Gibbous, 74% visible
METAR KAIG 170935Z AUTO 05008KT 7SM OVC007 00/00 A2987 RMK AO2 P0001 T10031005
Pressure 29.87 in
Visibility 7.0 miles
Clouds Overcast 700 ft
Windchill 32 °F
Dew Point 30 °F
Humidity 91%
Rainfall 0.00 in
Snow Depth Not available.
7:28 AM 4:43 PM
Waning Gibbous, 74% visible
METAR KAIG 170935Z AUTO 05008KT 7SM OVC007 00/00 A2987 RMK AO2 P0001 T10031005

Get Your Daily Forecast Email!

Thanks for signing up!

Be on the lookout for a verification email in your inbox.

You'll start receiving the daily forecast at 8 AM.

×

10-Day Weather Forecast

Almanac

Astronomy

Jan. 17, 2017 Rise Set
Actual Time
Civil Twilight
Nautical Twilight
Astronomical Twilight
Moon
Length of Visible Light
Length of Day
Tomorrow will be .
, % of the Moon is Illuminated

Today's Extremes

State Highs State Lows

Community

WunderPhotos

Upload Photos

1,962,540 photos uploaded!

WunderBlog® & News

Nearby

Air Quality

  Air Quality AQ Index Pollutant
Not available.

Snow Depth

Station Depth Elevation

Earthquake Activity

City Distance Mag. Time & Date
Minimum magnitude displayed is 2.5.

Coastal Water Temperatures

Place Temperature

Stations

Nearby Weather Stations

Station Location Temp. Windchill Dew Point Humidity Wind Precip. Elev Updated Type
                   

Watches & Warnings

Winter Storm Warning
Issued: 2:29 AM CST Jan. 17, 2017 – National Weather Service

... Winter Storm Warning remains in effect until noon CST today...

* timing... freezing rain... mixed with sleet or snow at times...
will continue this morning.

* Snow and ice accumulations... an additional one tenth ice
accumulation this morning... for a total of around one quarter
inch ice accumulation. Some sleet and snow is possible.

* Impacts... the freezing rain will result in untreated pavement
becoming very slippery. Travel will be extremely hazardous.

Precautionary/preparedness actions...

A Winter Storm Warning means significant amounts of snow...
sleet... and ice are expected or occurring. Strong winds are also
possible. This will make travel very hazardous. The latest
Wisconsin Road conditions can be obtained by calling 511.